createdAt,value
2023-03-10T00:00:35.357Z,9.57
2023-03-10T00:01:34.774Z,9.58
2023-03-10T00:02:34.959Z,9.57
2023-03-10T00:03:36.319Z,9.48
2023-03-10T00:04:36.412Z,9.56
2023-03-10T00:05:35.680Z,9.57
2023-03-10T00:06:35.784Z,9.56
2023-03-10T00:07:37.815Z,9.50
2023-03-10T00:08:36.387Z,9.49
2023-03-10T00:09:36.469Z,9.58
2023-03-10T00:10:36.642Z,9.57
2023-03-10T00:11:36.834Z,9.60
2023-03-10T00:12:37.814Z,9.53
2023-03-10T00:13:37.240Z,9.58
2023-03-10T00:14:37.455Z,9.58
2023-03-10T00:15:37.722Z,9.58
2023-03-10T00:16:37.805Z,9.56
2023-03-10T00:17:37.993Z,9.58
2023-03-10T00:18:38.164Z,9.57
2023-03-10T00:19:38.353Z,9.61
2023-03-10T00:20:39.325Z,9.58
2023-03-10T00:21:38.796Z,9.58
2023-03-10T00:22:38.834Z,9.56
2023-03-10T00:23:39.870Z,9.53
2023-03-10T00:24:39.132Z,9.61
2023-03-10T00:25:39.880Z,9.58
2023-03-10T00:26:40.328Z,9.71
2023-03-10T00:27:39.591Z,9.70
2023-03-10T00:28:39.782Z,9.64
2023-03-10T00:29:39.957Z,9.71
2023-03-10T00:30:40.126Z,9.75
2023-03-10T00:31:40.366Z,9.73
2023-03-10T00:32:41.984Z,9.71
2023-03-10T00:33:41.324Z,9.70
2023-03-10T00:34:40.820Z,9.71
2023-03-10T00:35:41.105Z,9.67
2023-03-10T00:36:41.817Z,9.75
2023-03-10T00:37:41.356Z,9.81
2023-03-10T00:38:42.838Z,9.81
2023-03-10T00:39:41.748Z,9.81
2023-03-10T00:40:42.881Z,9.71
2023-03-10T00:41:42.817Z,9.79
2023-03-10T00:42:43.818Z,9.85
2023-03-10T00:43:43.184Z,9.86
2023-03-10T00:44:42.719Z,9.85
2023-03-10T00:45:43.820Z,9.78
2023-03-10T00:46:43.121Z,9.91
2023-03-10T00:47:44.195Z,9.89
2023-03-10T00:48:44.360Z,9.93
2023-03-10T00:49:43.478Z,9.86
2023-03-10T00:50:43.603Z,9.83
2023-03-10T00:51:44.840Z,9.85
2023-03-10T00:52:44.824Z,9.81
2023-03-10T00:53:44.844Z,9.85
2023-03-10T00:54:44.234Z,9.76
2023-03-10T00:55:45.398Z,9.81
2023-03-10T00:56:45.408Z,9.81
2023-03-10T00:57:44.656Z,9.83
2023-03-10T00:58:44.834Z,9.76
2023-03-10T00:59:50.326Z,9.85
2023-03-10T01:00:47.828Z,9.93
2023-03-10T01:01:45.390Z,9.79
2023-03-10T01:02:45.511Z,9.79
2023-03-10T01:03:46.331Z,9.85
2023-03-10T01:04:46.460Z,9.78
2023-03-10T01:05:46.005Z,9.85
2023-03-10T01:06:47.150Z,9.96
2023-03-10T01:07:46.270Z,9.94
2023-03-10T01:08:47.827Z,9.96
2023-03-10T01:09:46.580Z,9.89
2023-03-10T01:10:48.191Z,9.89
2023-03-10T01:11:47.830Z,9.94
2023-03-10T01:12:47.089Z,9.88
2023-03-10T01:13:47.307Z,9.82
2023-03-10T01:14:47.464Z,9.78
2023-03-10T01:15:47.890Z,9.78
2023-03-10T01:16:47.746Z,9.82
2023-03-10T01:17:47.921Z,9.75
2023-03-10T01:18:48.081Z,9.70
2023-03-10T01:19:48.224Z,9.73
2023-03-10T01:20:48.391Z,9.76
2023-03-10T01:21:49.328Z,9.83
2023-03-10T01:22:48.698Z,9.78
2023-03-10T01:23:48.853Z,9.82
2023-03-10T01:24:49.007Z,9.76
2023-03-10T01:25:49.193Z,9.82
2023-03-10T01:26:49.347Z,9.78
2023-03-10T01:27:49.501Z,9.78
2023-03-10T01:28:49.679Z,9.79
2023-03-10T01:29:49.912Z,9.94
2023-03-10T01:30:49.948Z,9.81
2023-03-10T01:31:50.170Z,9.89
2023-03-10T01:32:52.391Z,9.76
2023-03-10T01:33:50.524Z,9.82
2023-03-10T01:34:50.723Z,9.75
2023-03-10T01:35:51.006Z,9.83
2023-03-10T01:36:51.874Z,9.81
2023-03-10T01:37:51.889Z,9.76
2023-03-10T01:38:52.346Z,9.81
2023-03-10T01:39:51.918Z,9.79
2023-03-10T01:40:51.758Z,9.85
2023-03-10T01:41:51.933Z,9.85
2023-03-10T01:42:53.331Z,9.89
2023-03-10T01:43:52.889Z,9.85
2023-03-10T01:44:52.956Z,9.82
2023-03-10T01:45:53.337Z,9.85
2023-03-10T01:46:53.160Z,9.81
2023-03-10T01:47:53.166Z,9.83
2023-03-10T01:48:53.321Z,9.76
2023-03-10T01:49:53.517Z,9.79
2023-03-10T01:50:54.391Z,9.76
2023-03-10T01:51:54.909Z,9.82
2023-03-10T01:52:54.146Z,9.76
2023-03-10T01:53:55.301Z,9.76
2023-03-10T01:54:56.341Z,9.85
2023-03-10T01:55:55.339Z,9.83
2023-03-10T01:56:56.338Z,9.76
2023-03-10T01:57:55.702Z,9.79
2023-03-10T01:58:55.113Z,9.81
2023-03-10T01:59:55.411Z,9.81
2023-03-10T02:00:56.453Z,9.81
2023-03-10T02:01:55.701Z,9.71
2023-03-10T02:02:56.344Z,9.75
2023-03-10T02:03:57.792Z,9.76
2023-03-10T02:04:56.410Z,9.78
2023-03-10T02:05:57.846Z,9.85
2023-03-10T02:06:57.396Z,9.81
2023-03-10T02:07:57.412Z,9.83
2023-03-10T02:08:58.216Z,9.75
2023-03-10T02:09:57.894Z,9.79
2023-03-10T02:10:57.233Z,9.79
2023-03-10T02:11:57.839Z,9.76
2023-03-10T02:12:57.461Z,9.73
2023-03-10T02:13:57.639Z,9.76
2023-03-10T02:14:57.778Z,9.66
2023-03-10T02:15:58.939Z,9.67
2023-03-10T02:16:58.390Z,9.66
2023-03-10T02:18:00.462Z,9.68
2023-03-10T02:18:58.590Z,9.61
2023-03-10T02:19:58.795Z,9.63
2023-03-10T02:20:59.888Z,9.64
2023-03-10T02:21:59.415Z,9.67
2023-03-10T02:23:01.844Z,9.56
2023-03-10T02:24:01.657Z,9.67
2023-03-10T02:25:01.358Z,9.61
2023-03-10T02:25:59.871Z,9.64
2023-03-10T02:27:00.411Z,9.67
2023-03-10T02:28:00.261Z,9.53
2023-03-10T02:29:00.908Z,9.57
2023-03-10T02:30:00.933Z,9.66
2023-03-10T02:31:00.618Z,9.52
2023-03-10T02:32:00.875Z,9.56
2023-03-10T02:33:01.900Z,9.50
2023-03-10T02:34:01.927Z,9.46
2023-03-10T02:35:01.908Z,9.52
2023-03-10T02:36:02.431Z,9.53
2023-03-10T02:37:03.416Z,9.52
2023-03-10T02:38:01.974Z,9.56
2023-03-10T02:39:02.904Z,9.52
2023-03-10T02:40:02.338Z,9.53
2023-03-10T02:41:02.521Z,9.60
2023-03-10T02:42:03.362Z,9.50
2023-03-10T02:43:02.902Z,9.48
2023-03-10T02:44:03.077Z,9.52
2023-03-10T02:45:03.290Z,9.49
2023-03-10T02:46:04.393Z,9.52
2023-03-10T02:47:03.705Z,9.48
2023-03-10T02:48:03.878Z,9.52
2023-03-10T02:49:04.091Z,9.50
2023-03-10T02:50:05.856Z,9.52
2023-03-10T02:51:05.419Z,9.42
2023-03-10T02:52:04.729Z,9.48
2023-03-10T02:53:04.993Z,9.45
2023-03-10T02:54:05.081Z,9.43
2023-03-10T02:55:05.207Z,9.49
2023-03-10T02:56:05.461Z,9.52
2023-03-10T02:57:05.647Z,9.45
2023-03-10T02:58:06.723Z,9.45
2023-03-10T02:59:06.075Z,9.43
2023-03-10T03:00:06.264Z,9.45
2023-03-10T03:01:07.468Z,9.52
2023-03-10T03:02:06.664Z,9.42
2023-03-10T03:03:06.879Z,9.40
2023-03-10T03:04:07.176Z,9.39
2023-03-10T03:05:08.228Z,9.28
2023-03-10T03:06:07.514Z,9.27
2023-03-10T03:07:07.719Z,9.34
2023-03-10T03:08:08.405Z,9.32
2023-03-10T03:09:08.096Z,9.31
2023-03-10T03:10:08.281Z,9.24
2023-03-10T03:11:08.457Z,9.39
2023-03-10T03:12:08.615Z,9.31
2023-03-10T03:13:08.800Z,9.25
2023-03-10T03:14:08.949Z,9.27
2023-03-10T03:15:09.083Z,9.34
2023-03-10T03:16:09.260Z,9.23
2023-03-10T03:17:09.457Z,9.28
2023-03-10T03:18:09.619Z,9.32
2023-03-10T03:19:09.782Z,9.28
2023-03-10T03:20:09.989Z,9.31
2023-03-10T03:21:10.913Z,9.31
2023-03-10T03:22:10.278Z,9.28
2023-03-10T03:23:11.415Z,9.38
2023-03-10T03:24:10.714Z,9.31
2023-03-10T03:25:10.880Z,9.34
2023-03-10T03:26:11.903Z,9.25
2023-03-10T03:27:11.183Z,9.23
2023-03-10T03:28:11.352Z,9.32
2023-03-10T03:29:11.490Z,9.28
2023-03-10T03:30:11.730Z,9.23
2023-03-10T03:31:12.419Z,9.20
2023-03-10T03:32:12.178Z,9.20
2023-03-10T03:33:12.245Z,9.25
2023-03-10T03:34:12.419Z,9.21
2023-03-10T03:35:14.366Z,9.23
2023-03-10T03:36:13.394Z,9.25
2023-03-10T03:37:12.886Z,9.23
2023-03-10T03:38:13.078Z,9.21
2023-03-10T03:39:13.791Z,9.28
2023-03-10T03:40:13.454Z,9.15
2023-03-10T03:41:13.614Z,9.18
2023-03-10T03:42:13.762Z,9.16
2023-03-10T03:43:14.879Z,9.18
2023-03-10T03:44:14.135Z,9.20
2023-03-10T03:45:14.297Z,9.13
2023-03-10T03:46:15.025Z,9.21
2023-03-10T03:47:15.380Z,9.10
2023-03-10T03:48:14.803Z,9.18
2023-03-10T03:49:14.979Z,9.12
2023-03-10T03:50:15.184Z,9.15
2023-03-10T03:51:15.390Z,9.10
2023-03-10T03:52:16.570Z,9.12
2023-03-10T03:53:17.406Z,9.15
2023-03-10T03:54:15.919Z,9.15
2023-03-10T03:55:16.092Z,9.16
2023-03-10T03:56:16.259Z,9.10
2023-03-10T03:57:16.440Z,9.10
2023-03-10T03:58:16.652Z,9.10
2023-03-10T03:59:17.424Z,9.13
2023-03-10T04:00:17.429Z,9.21
2023-03-10T04:01:17.115Z,9.25
2023-03-10T04:02:17.347Z,9.23
2023-03-10T04:03:17.483Z,9.27
2023-03-10T04:04:18.408Z,9.23
2023-03-10T04:05:18.415Z,9.15
2023-03-10T04:06:18.870Z,9.20
2023-03-10T04:07:18.002Z,9.21
2023-03-10T04:08:18.174Z,9.16
2023-03-10T04:09:18.428Z,9.15
2023-03-10T04:10:18.532Z,9.15
2023-03-10T04:11:19.370Z,9.05
2023-03-10T04:12:19.883Z,9.15
2023-03-10T04:13:19.060Z,9.23
2023-03-10T04:14:20.360Z,9.16
2023-03-10T04:15:20.430Z,9.23
2023-03-10T04:16:19.654Z,9.25
2023-03-10T04:17:21.872Z,9.18
2023-03-10T04:18:21.876Z,9.25
2023-03-10T04:19:20.876Z,9.20
2023-03-10T04:20:20.931Z,9.24
2023-03-10T04:21:20.909Z,9.32
2023-03-10T04:22:21.426Z,9.18
2023-03-10T04:23:20.725Z,9.16
2023-03-10T04:24:20.937Z,9.21
2023-03-10T04:25:21.132Z,9.16
2023-03-10T04:26:21.355Z,9.13
2023-03-10T04:27:21.530Z,9.15
2023-03-10T04:28:22.884Z,9.18
2023-03-10T04:29:21.961Z,9.10
2023-03-10T04:30:22.215Z,9.18
2023-03-10T04:31:22.592Z,9.12
2023-03-10T04:32:22.519Z,9.12
2023-03-10T04:33:22.693Z,9.16
2023-03-10T04:34:22.882Z,9.13
2023-03-10T04:35:23.879Z,9.18
2023-03-10T04:36:24.372Z,9.09
2023-03-10T04:37:23.422Z,8.99
2023-03-10T04:38:23.623Z,9.05
2023-03-10T04:39:23.843Z,9.06
2023-03-10T04:40:24.066Z,9.13
2023-03-10T04:41:24.866Z,9.06
2023-03-10T04:42:24.430Z,9.02
2023-03-10T04:43:24.652Z,9.02
2023-03-10T04:44:30.971Z,9.10
2023-03-10T04:45:27.041Z,9.15
2023-03-10T04:46:25.314Z,9.10
2023-03-10T04:47:25.437Z,9.18
2023-03-10T04:48:25.657Z,9.15
2023-03-10T04:49:26.796Z,9.09
2023-03-10T04:50:26.009Z,9.13
2023-03-10T04:51:27.382Z,9.10
2023-03-10T04:52:26.930Z,9.15
2023-03-10T04:53:26.633Z,9.20
2023-03-10T04:54:26.947Z,9.10
2023-03-10T04:55:27.743Z,9.10
2023-03-10T04:56:27.928Z,9.18
2023-03-10T04:57:27.435Z,9.18
2023-03-10T04:58:29.384Z,9.10
2023-03-10T04:59:28.389Z,9.16
2023-03-10T05:00:28.514Z,9.21
2023-03-10T05:01:27.996Z,9.18
2023-03-10T05:02:28.930Z,9.18
2023-03-10T05:03:28.888Z,9.20
2023-03-10T05:04:28.596Z,9.16
2023-03-10T05:05:28.828Z,9.13
2023-03-10T05:06:29.780Z,9.13
2023-03-10T05:07:28.966Z,9.12
2023-03-10T05:08:29.941Z,9.20
2023-03-10T05:09:29.366Z,9.09
2023-03-10T05:10:30.536Z,9.12
2023-03-10T05:11:29.677Z,9.15
2023-03-10T05:12:31.937Z,9.20
2023-03-10T05:13:32.050Z,9.05
2023-03-10T05:14:31.322Z,9.05
2023-03-10T05:15:31.407Z,8.97
2023-03-10T05:16:31.478Z,9.10
2023-03-10T05:17:30.913Z,9.02
2023-03-10T05:18:33.393Z,9.01
2023-03-10T05:19:31.883Z,8.99
2023-03-10T05:20:32.393Z,9.04
2023-03-10T05:21:31.930Z,9.04
2023-03-10T05:22:31.727Z,8.91
2023-03-10T05:23:32.433Z,8.97
2023-03-10T05:24:32.095Z,9.01
2023-03-10T05:25:32.295Z,8.96
2023-03-10T05:26:34.795Z,8.96
2023-03-10T05:27:33.624Z,9.06
2023-03-10T05:28:32.948Z,9.04
2023-03-10T05:29:33.030Z,9.02
2023-03-10T05:30:33.951Z,9.05
2023-03-10T05:31:33.404Z,9.09
2023-03-10T05:32:33.546Z,9.12
2023-03-10T05:33:33.620Z,9.13
2023-03-10T05:34:33.797Z,9.20
2023-03-10T05:35:34.996Z,9.21
2023-03-10T05:36:34.134Z,9.27
2023-03-10T05:37:34.326Z,9.20
2023-03-10T05:38:35.407Z,9.21
2023-03-10T05:39:34.685Z,9.20
2023-03-10T05:40:34.871Z,9.23
2023-03-10T05:41:35.963Z,9.20
2023-03-10T05:42:35.457Z,9.21
2023-03-10T05:43:35.405Z,9.21
2023-03-10T05:44:36.435Z,9.31
2023-03-10T05:45:35.726Z,9.28
2023-03-10T05:46:35.997Z,9.28
2023-03-10T05:47:36.146Z,9.27
2023-03-10T05:48:36.359Z,9.35
2023-03-10T05:49:38.641Z,9.38
2023-03-10T05:50:38.477Z,9.30
2023-03-10T05:51:36.813Z,9.24
2023-03-10T05:52:37.000Z,9.27
2023-03-10T05:53:38.901Z,9.30
2023-03-10T05:54:37.416Z,9.24
2023-03-10T05:55:38.913Z,9.21
2023-03-10T05:56:37.967Z,9.23
2023-03-10T05:57:40.256Z,9.15
2023-03-10T05:58:38.897Z,9.25
2023-03-10T05:59:38.899Z,9.24
2023-03-10T06:00:39.437Z,9.20
2023-03-10T06:01:38.623Z,9.18
2023-03-10T06:02:38.836Z,9.15
2023-03-10T06:03:39.112Z,9.16
2023-03-10T06:04:39.206Z,9.24
2023-03-10T06:05:39.395Z,9.21
2023-03-10T06:06:40.404Z,9.20
2023-03-10T06:07:40.452Z,9.23
2023-03-10T06:08:40.010Z,9.23
2023-03-10T06:09:40.210Z,9.16
2023-03-10T06:10:41.396Z,9.15
2023-03-10T06:11:40.951Z,9.20
2023-03-10T06:12:42.261Z,9.28
2023-03-10T06:13:40.959Z,9.25
2023-03-10T06:14:41.065Z,9.24
2023-03-10T06:15:41.944Z,9.23
2023-03-10T06:16:42.990Z,9.28
2023-03-10T06:17:41.560Z,9.23
2023-03-10T06:18:41.788Z,9.24
2023-03-10T06:19:41.971Z,9.25
2023-03-10T06:20:42.154Z,9.23
2023-03-10T06:21:44.350Z,9.20
2023-03-10T06:22:43.459Z,9.23
2023-03-10T06:23:43.506Z,9.18
2023-03-10T06:24:43.764Z,9.18
2023-03-10T06:25:43.024Z,9.10
2023-03-10T06:26:43.196Z,9.15
2023-03-10T06:27:44.403Z,9.27
2023-03-10T06:28:43.540Z,9.32
2023-03-10T06:29:44.409Z,9.32
2023-03-10T06:30:45.413Z,9.38
2023-03-10T06:31:44.235Z,9.35
2023-03-10T06:32:44.964Z,9.45
2023-03-10T06:33:44.611Z,9.35
2023-03-10T06:34:44.776Z,9.30
2023-03-10T06:35:45.033Z,9.43
2023-03-10T06:36:45.063Z,9.39
2023-03-10T06:37:45.207Z,9.40
2023-03-10T06:38:46.924Z,9.39
2023-03-10T06:39:45.526Z,9.42
2023-03-10T06:40:45.713Z,9.39
2023-03-10T06:41:45.876Z,9.32
2023-03-10T06:42:47.910Z,9.38
2023-03-10T06:43:46.263Z,9.28
2023-03-10T06:44:49.202Z,9.31
2023-03-10T06:45:48.538Z,9.46
2023-03-10T06:46:46.958Z,9.38
2023-03-10T06:47:47.907Z,9.35
2023-03-10T06:48:47.951Z,9.49
2023-03-10T06:49:47.902Z,9.42
2023-03-10T06:50:48.271Z,9.50
2023-03-10T06:51:47.620Z,9.49
2023-03-10T06:52:47.765Z,9.57
2023-03-10T06:53:47.884Z,9.48
2023-03-10T06:54:48.037Z,9.46
2023-03-10T06:55:48.217Z,9.40
2023-03-10T06:56:48.911Z,9.56
2023-03-10T06:57:49.416Z,9.48
2023-03-10T06:58:48.652Z,9.52
2023-03-10T06:59:49.775Z,9.39
2023-03-10T07:00:49.089Z,9.39
2023-03-10T07:01:49.956Z,9.45
2023-03-10T07:02:49.915Z,9.49
2023-03-10T07:03:49.626Z,9.48
2023-03-10T07:04:50.545Z,9.40
2023-03-10T07:05:49.986Z,9.40
2023-03-10T07:06:50.144Z,9.46
2023-03-10T07:07:50.317Z,9.42
2023-03-10T07:08:51.408Z,9.40
2023-03-10T07:09:50.672Z,9.56
2023-03-10T07:10:51.842Z,9.46
2023-03-10T07:11:52.908Z,9.39
2023-03-10T07:12:51.466Z,9.40
2023-03-10T07:13:51.495Z,9.49
2023-03-10T07:14:51.644Z,9.43
2023-03-10T07:15:51.822Z,9.40
2023-03-10T07:16:52.085Z,9.45
2023-03-10T07:17:52.227Z,9.38
2023-03-10T07:18:52.958Z,9.39
2023-03-10T07:19:53.408Z,9.45
2023-03-10T07:20:52.801Z,9.31
2023-03-10T07:21:52.965Z,9.38
2023-03-10T07:22:54.438Z,9.38
2023-03-10T07:23:53.954Z,9.42
2023-03-10T07:24:53.460Z,9.38
2023-03-10T07:25:54.913Z,9.35
2023-03-10T07:26:54.409Z,9.32
2023-03-10T07:27:55.408Z,9.38
2023-03-10T07:28:54.167Z,9.39
2023-03-10T07:29:54.348Z,9.46
2023-03-10T07:30:55.565Z,9.56
2023-03-10T07:31:55.277Z,9.32
2023-03-10T07:32:55.066Z,9.46
2023-03-10T07:33:55.959Z,9.39
2023-03-10T07:34:55.233Z,9.39
2023-03-10T07:35:55.409Z,9.49
2023-03-10T07:36:55.645Z,9.48
2023-03-10T07:37:55.840Z,9.46
2023-03-10T07:38:56.981Z,9.46
2023-03-10T07:39:56.952Z,9.49
2023-03-10T07:40:56.501Z,9.30
2023-03-10T07:41:56.715Z,9.42
2023-03-10T07:42:57.915Z,9.34
2023-03-10T07:43:57.035Z,9.39
2023-03-10T07:44:57.972Z,9.42
2023-03-10T07:45:58.002Z,9.40
2023-03-10T07:46:57.976Z,9.43
2023-03-10T07:47:57.749Z,9.48
2023-03-10T07:48:58.792Z,9.58
2023-03-10T07:49:58.172Z,9.70
2023-03-10T07:50:58.307Z,9.75
2023-03-10T07:51:58.970Z,9.83
2023-03-10T07:52:59.426Z,9.97
2023-03-10T07:54:00.425Z,10.03
2023-03-10T07:54:59.043Z,9.93
2023-03-10T07:56:00.428Z,9.82
2023-03-10T07:56:59.511Z,9.79
2023-03-10T07:58:00.484Z,9.79
2023-03-10T07:58:59.876Z,9.83
2023-03-10T08:00:00.055Z,9.75
2023-03-10T08:01:00.241Z,9.75
2023-03-10T08:02:00.393Z,9.79
2023-03-10T08:03:01.422Z,9.79
2023-03-10T08:04:00.821Z,9.78
2023-03-10T08:05:00.854Z,9.73
2023-03-10T08:06:00.966Z,9.79
2023-03-10T08:07:01.121Z,9.86
2023-03-10T08:08:01.929Z,9.91
2023-03-10T08:09:01.459Z,9.81
2023-03-10T08:10:01.665Z,9.86
2023-03-10T08:11:01.815Z,9.81
2023-03-10T08:12:01.982Z,9.89
2023-03-10T08:13:02.928Z,9.99
2023-03-10T08:14:03.975Z,9.93
2023-03-10T08:15:36.659Z,9.97
2023-03-10T08:16:03.540Z,10.04
2023-03-10T08:17:02.804Z,9.96
2023-03-10T08:18:02.950Z,9.88
2023-03-10T08:19:05.826Z,9.94
2023-03-10T08:20:03.359Z,10.01
2023-03-10T08:21:04.035Z,10.07
2023-03-10T08:22:05.466Z,9.99
2023-03-10T08:23:04.509Z,10.09
2023-03-10T08:24:04.027Z,10.00
2023-03-10T08:25:04.978Z,10.04
2023-03-10T08:26:04.374Z,10.12
2023-03-10T08:27:05.481Z,10.12
2023-03-10T08:28:05.506Z,10.14
2023-03-10T08:29:06.329Z,10.12
2023-03-10T08:30:05.079Z,10.22
2023-03-10T08:31:05.643Z,10.17
2023-03-10T08:32:06.510Z,10.26
2023-03-10T08:33:05.665Z,10.26
2023-03-10T08:34:05.779Z,10.56
2023-03-10T08:35:05.972Z,10.68
2023-03-10T08:36:07.061Z,10.73
2023-03-10T08:37:07.006Z,10.70
2023-03-10T08:38:06.536Z,10.53
2023-03-10T08:39:08.473Z,10.63
2023-03-10T08:40:06.858Z,10.63
2023-03-10T08:41:08.047Z,10.56
2023-03-10T08:42:07.228Z,10.65
2023-03-10T08:43:08.015Z,10.63
2023-03-10T08:44:07.519Z,10.65
2023-03-10T08:45:08.814Z,10.63
2023-03-10T08:46:09.085Z,10.71
2023-03-10T08:47:09.123Z,10.60
2023-03-10T08:48:08.280Z,10.78
2023-03-10T08:49:08.408Z,10.88
2023-03-10T08:50:08.594Z,10.94
2023-03-10T08:51:08.749Z,11.16
2023-03-10T08:52:09.513Z,11.36
2023-03-10T08:53:10.026Z,11.54
2023-03-10T08:54:10.016Z,11.90
2023-03-10T08:55:10.336Z,12.23
2023-03-10T08:56:09.610Z,12.16
2023-03-10T08:57:09.780Z,12.77
2023-03-10T08:58:10.046Z,12.56
2023-03-10T08:59:10.121Z,12.23
2023-03-10T09:00:10.311Z,12.08
2023-03-10T09:01:11.563Z,11.86
2023-03-10T09:02:10.790Z,11.83
2023-03-10T09:03:10.939Z,11.86
2023-03-10T09:04:11.057Z,11.87
2023-03-10T09:05:11.979Z,11.82
2023-03-10T09:06:11.389Z,11.82
2023-03-10T09:07:12.519Z,11.75
2023-03-10T09:08:11.852Z,12.01
2023-03-10T09:09:12.046Z,12.04
2023-03-10T09:10:12.236Z,12.16
2023-03-10T09:11:13.019Z,12.27
2023-03-10T09:12:14.532Z,12.56
2023-03-10T09:13:14.288Z,12.75
2023-03-10T09:14:16.676Z,12.78
2023-03-10T09:15:14.146Z,12.95
2023-03-10T09:16:14.041Z,12.79
2023-03-10T09:17:14.984Z,12.81
2023-03-10T09:18:13.735Z,12.75
2023-03-10T09:19:13.898Z,12.67
2023-03-10T09:20:14.062Z,12.48
2023-03-10T09:21:14.249Z,12.30
2023-03-10T09:22:14.411Z,12.06
2023-03-10T09:23:14.597Z,11.71
2023-03-10T09:24:14.755Z,11.47
2023-03-10T09:25:14.905Z,11.24
2023-03-10T09:26:15.093Z,11.10
2023-03-10T09:27:15.248Z,11.01
2023-03-10T09:28:18.246Z,11.02
2023-03-10T09:29:17.565Z,11.02
2023-03-10T09:30:16.487Z,11.02
2023-03-10T09:31:16.136Z,11.06
2023-03-10T09:32:17.150Z,11.03
2023-03-10T09:33:16.230Z,10.99
2023-03-10T09:34:17.027Z,10.94
2023-03-10T09:35:16.544Z,10.88
2023-03-10T09:36:18.668Z,10.86
2023-03-10T09:37:17.541Z,10.91
2023-03-10T09:38:17.988Z,10.74
2023-03-10T09:39:18.033Z,10.95
2023-03-10T09:40:18.001Z,11.03
2023-03-10T09:41:18.530Z,10.94
2023-03-10T09:42:25.480Z,10.91
2023-03-10T09:43:20.508Z,10.95
2023-03-10T09:44:18.115Z,10.89
2023-03-10T09:45:19.030Z,10.83
2023-03-10T09:46:18.499Z,10.74
2023-03-10T09:47:20.113Z,10.62
2023-03-10T09:48:19.801Z,10.68
2023-03-10T09:49:18.981Z,10.74
2023-03-10T09:50:20.037Z,10.84
2023-03-10T09:51:19.311Z,10.83
2023-03-10T09:52:19.477Z,10.80
2023-03-10T09:53:19.666Z,10.74
2023-03-10T09:54:19.834Z,10.94
2023-03-10T09:55:19.984Z,10.99
2023-03-10T09:56:20.149Z,10.92
2023-03-10T09:57:20.335Z,10.96
2023-03-10T09:58:20.551Z,11.17
2023-03-10T09:59:20.733Z,11.36
2023-03-10T10:00:21.497Z,11.44
2023-03-10T10:01:21.111Z,11.56
2023-03-10T10:02:22.044Z,11.44
2023-03-10T10:03:21.474Z,11.43
2023-03-10T10:04:21.796Z,11.36
2023-03-10T10:05:21.778Z,11.34
2023-03-10T10:06:21.923Z,11.47
2023-03-10T10:07:22.111Z,11.85
2023-03-10T10:08:22.269Z,11.93
2023-03-10T10:09:22.445Z,11.87
2023-03-10T10:10:23.998Z,11.83
2023-03-10T10:11:23.492Z,11.65
2023-03-10T10:12:22.922Z,11.59
2023-03-10T10:13:23.107Z,11.67
2023-03-10T10:14:31.693Z,11.52
2023-03-10T10:15:26.497Z,11.47
2023-03-10T10:16:33.884Z,11.43
2023-03-10T10:17:26.599Z,11.50
2023-03-10T10:18:25.999Z,11.57
2023-03-10T10:19:25.180Z,11.39
2023-03-10T10:20:24.328Z,11.38
2023-03-10T10:21:28.161Z,11.17
2023-03-10T10:22:27.364Z,11.14
2023-03-10T10:23:25.500Z,11.10
2023-03-10T10:24:26.505Z,11.07
2023-03-10T10:25:26.041Z,11.06
2023-03-10T10:26:25.550Z,10.98
2023-03-10T10:27:27.013Z,11.09
2023-03-10T10:28:25.904Z,11.09
2023-03-10T10:29:26.081Z,11.10
2023-03-10T10:30:28.576Z,11.19
2023-03-10T10:31:26.628Z,11.19
2023-03-10T10:32:26.693Z,11.41
2023-03-10T10:33:26.880Z,11.41
2023-03-10T10:34:27.022Z,11.28
2023-03-10T10:35:27.199Z,11.32
2023-03-10T10:36:27.402Z,11.44
2023-03-10T10:37:28.520Z,11.50
2023-03-10T10:38:27.789Z,11.43
2023-03-10T10:39:28.394Z,11.57
2023-03-10T10:40:30.047Z,11.61
2023-03-10T10:41:29.506Z,11.71
2023-03-10T10:42:29.045Z,11.70
2023-03-10T10:43:29.427Z,11.74
2023-03-10T10:44:30.505Z,11.89
2023-03-10T10:45:30.005Z,11.75
2023-03-10T10:46:30.077Z,11.89
2023-03-10T10:47:29.430Z,11.78
2023-03-10T10:48:29.621Z,11.89
2023-03-10T10:49:29.812Z,11.82
2023-03-10T10:50:29.998Z,12.04
2023-03-10T10:51:30.212Z,11.96
2023-03-10T10:52:30.561Z,11.99
2023-03-10T10:53:31.054Z,12.01
2023-03-10T10:54:31.063Z,12.02
2023-03-10T10:55:30.870Z,12.06
2023-03-10T10:56:31.053Z,12.05
2023-03-10T10:57:31.253Z,11.89
2023-03-10T10:58:33.015Z,11.80
2023-03-10T10:59:31.660Z,11.85
2023-03-10T11:00:32.073Z,11.96
2023-03-10T11:01:32.615Z,11.86
2023-03-10T11:02:32.253Z,11.97
2023-03-10T11:03:33.237Z,11.96
2023-03-10T11:04:33.480Z,12.27
2023-03-10T11:05:32.681Z,12.26
2023-03-10T11:06:34.018Z,12.19
2023-03-10T11:07:34.018Z,12.21
2023-03-10T11:08:33.178Z,12.19
2023-03-10T11:09:34.019Z,12.30
2023-03-10T11:10:34.521Z,12.23
2023-03-10T11:11:35.020Z,12.24
2023-03-10T11:12:34.521Z,12.44
2023-03-10T11:13:36.025Z,12.39
2023-03-10T11:14:35.886Z,12.19
2023-03-10T11:15:34.600Z,12.27
2023-03-10T11:16:35.520Z,12.15
2023-03-10T11:17:35.526Z,12.37
2023-03-10T11:18:35.067Z,12.54
2023-03-10T11:19:35.265Z,12.70
2023-03-10T11:20:36.061Z,12.79
2023-03-10T11:21:35.605Z,12.62
2023-03-10T11:22:36.079Z,12.59
2023-03-10T11:23:36.032Z,12.84
2023-03-10T11:24:38.044Z,12.56
2023-03-10T11:25:37.026Z,12.54
2023-03-10T11:26:37.529Z,12.57
2023-03-10T11:27:36.712Z,12.49
2023-03-10T11:28:37.563Z,12.57
2023-03-10T11:29:37.134Z,12.74
2023-03-10T11:30:38.071Z,12.71
2023-03-10T11:31:37.347Z,12.64
2023-03-10T11:32:38.133Z,12.77
2023-03-10T11:33:37.718Z,12.70
2023-03-10T11:34:37.899Z,12.69
2023-03-10T11:35:38.122Z,12.88
2023-03-10T11:36:49.562Z,12.81
2023-03-10T11:37:41.046Z,12.89
2023-03-10T11:38:39.079Z,13.00
2023-03-10T11:39:39.578Z,12.79
2023-03-10T11:40:39.113Z,12.99
2023-03-10T11:41:39.283Z,13.18
2023-03-10T11:42:39.466Z,13.47
2023-03-10T11:43:39.650Z,13.47
2023-03-10T11:44:40.569Z,13.55
2023-03-10T11:45:39.984Z,13.09
2023-03-10T11:46:41.631Z,13.00
2023-03-10T11:47:41.958Z,12.93
2023-03-10T11:48:41.681Z,13.25
2023-03-10T11:49:40.841Z,13.51
2023-03-10T11:50:41.584Z,13.43
2023-03-10T11:51:41.278Z,13.46
2023-03-10T11:52:41.437Z,13.43
2023-03-10T11:53:41.613Z,13.21
2023-03-10T11:54:42.816Z,13.11
2023-03-10T11:55:42.577Z,13.03
2023-03-10T11:56:43.219Z,12.97
2023-03-10T11:57:42.409Z,13.00
2023-03-10T11:58:43.541Z,13.09
2023-03-10T11:59:42.831Z,13.17
2023-03-10T12:00:43.527Z,13.14
2023-03-10T12:01:43.200Z,13.20
2023-03-10T12:02:43.621Z,13.14
2023-03-10T12:03:43.589Z,12.93
2023-03-10T12:04:44.580Z,12.88
2023-03-10T12:05:44.654Z,12.74
2023-03-10T12:06:44.187Z,12.78
2023-03-10T12:07:44.386Z,12.70
2023-03-10T12:08:44.549Z,12.71
2023-03-10T12:09:44.718Z,12.69
2023-03-10T12:10:44.915Z,12.77
2023-03-10T12:11:45.063Z,12.64
2023-03-10T12:12:45.240Z,12.66
2023-03-10T12:13:45.410Z,12.75
2023-03-10T12:14:46.076Z,12.81
2023-03-10T12:15:45.791Z,12.67
2023-03-10T12:16:46.099Z,12.71
2023-03-10T12:17:48.040Z,12.81
2023-03-10T12:18:46.310Z,12.81
2023-03-10T12:19:46.515Z,12.81
2023-03-10T12:20:48.548Z,12.77
2023-03-10T12:21:48.543Z,12.66
2023-03-10T12:22:48.080Z,12.48
2023-03-10T12:23:49.554Z,12.48
2023-03-10T12:24:47.609Z,12.48
2023-03-10T12:25:47.809Z,12.44
2023-03-10T12:26:48.019Z,12.44
2023-03-10T12:27:49.221Z,12.42
2023-03-10T12:28:49.078Z,12.26
2023-03-10T12:29:49.095Z,12.19
2023-03-10T12:30:49.402Z,11.90
2023-03-10T12:31:48.992Z,11.72
2023-03-10T12:32:50.108Z,11.78
2023-03-10T12:33:50.102Z,11.74
2023-03-10T12:34:49.436Z,11.65
2023-03-10T12:35:49.649Z,11.56
2023-03-10T12:36:49.834Z,11.53
2023-03-10T12:37:50.091Z,11.39
2023-03-10T12:38:51.099Z,11.49
2023-03-10T12:39:51.045Z,11.36
2023-03-10T12:40:50.589Z,11.35
2023-03-10T12:41:51.585Z,11.32
2023-03-10T12:42:52.545Z,11.27
2023-03-10T12:43:52.089Z,11.24
2023-03-10T12:44:51.384Z,11.24
2023-03-10T12:45:51.588Z,11.31
2023-03-10T12:46:52.863Z,11.24
2023-03-10T12:47:52.594Z,11.25
2023-03-10T12:48:52.150Z,11.25
2023-03-10T12:49:52.324Z,11.19
2023-03-10T12:50:52.597Z,11.11
2023-03-10T12:51:52.667Z,11.11
2023-03-10T12:52:52.831Z,11.03
2023-03-10T12:53:53.023Z,10.91
2023-03-10T12:54:53.221Z,10.80
2023-03-10T12:55:53.406Z,10.76
2023-03-10T12:56:53.611Z,10.83
2023-03-10T12:57:54.607Z,10.81
2023-03-10T12:58:53.900Z,10.80
2023-03-10T12:59:54.101Z,10.73
2023-03-10T13:00:54.348Z,10.74
2023-03-10T13:01:56.211Z,10.60
2023-03-10T13:02:55.689Z,10.43
2023-03-10T13:03:54.901Z,10.34
2023-03-10T13:04:56.550Z,10.24
2023-03-10T13:05:55.300Z,10.15
2023-03-10T13:06:55.503Z,9.93
2023-03-10T13:07:55.646Z,9.94
2023-03-10T13:08:57.051Z,9.89
2023-03-10T13:09:55.935Z,9.88
2023-03-10T13:10:56.948Z,9.99